Terminal Aerodrome Forecast
Issued by NWS

Home | Current Version | Previous Version | Text Only | Print | Product List | Glossary On
Versions: 1 2 3 4 5 6 7 8 9 10 11 12 13 14 15 16 17 18 19 20
000
FTUS43 KUNR 220504 AAB
TAFGCC
TAF AMD
KGCC 220504Z 2205/2224 19015KT P6SM VCSH OVC090
     FM220700 20011KT P6SM BKN100
     FM221700 24015KT P6SM SCT250=

USA.gov is the U.S. government's official web portal to all federal, state and local government web resources and services.